sensor_id;sensor_type;location;lat;lon;timestamp;P1;durP1;ratioP1;P2;durP2;ratioP2
25045;SDS011;13044;49.304;12.840;2023-08-01T00:00:17;4.28;;;2.95;;
25045;SDS011;13044;49.304;12.840;2023-08-01T00:02:43;2.60;;;2.40;;
25045;SDS011;13044;49.304;12.840;2023-08-01T00:05:11;5.03;;;2.80;;
25045;SDS011;13044;49.304;12.840;2023-08-01T00:07:38;4.20;;;2.88;;
25045;SDS011;13044;49.304;12.840;2023-08-01T00:10:05;4.90;;;3.08;;
25045;SDS011;13044;49.304;12.840;2023-08-01T00:12:32;4.20;;;3.10;;
25045;SDS011;13044;49.304;12.840;2023-08-01T00:14:59;4.88;;;3.10;;
25045;SDS011;13044;49.304;12.840;2023-08-01T00:17:26;3.95;;;2.67;;
25045;SDS011;13044;49.304;12.840;2023-08-01T00:19:53;4.93;;;3.42;;
25045;SDS011;13044;49.304;12.840;2023-08-01T00:22:21;3.17;;;2.88;;
25045;SDS011;13044;49.304;12.840;2023-08-01T00:24:48;4.82;;;2.78;;
25045;SDS011;13044;49.304;12.840;2023-08-01T00:27:15;3.08;;;2.47;;
25045;SDS011;13044;49.304;12.840;2023-08-01T00:29:42;3.60;;;2.38;;
25045;SDS011;13044;49.304;12.840;2023-08-01T00:32:09;3.70;;;2.85;;
25045;SDS011;13044;49.304;12.840;2023-08-01T00:34:35;2.88;;;2.20;;
25045;SDS011;13044;49.304;12.840;2023-08-01T00:37:03;3.85;;;2.30;;
25045;SDS011;13044;49.304;12.840;2023-08-01T00:39:30;3.63;;;2.20;;
25045;SDS011;13044;49.304;12.840;2023-08-01T00:41:58;3.72;;;2.40;;
25045;SDS011;13044;49.304;12.840;2023-08-01T00:44:25;2.60;;;2.40;;
25045;SDS011;13044;49.304;12.840;2023-08-01T00:46:52;3.55;;;2.60;;
25045;SDS011;13044;49.304;12.840;2023-08-01T00:49:19;2.83;;;2.17;;
25045;SDS011;13044;49.304;12.840;2023-08-01T00:51:46;2.63;;;2.13;;
25045;SDS011;13044;49.304;12.840;2023-08-01T00:54:14;2.65;;;2.33;;
25045;SDS011;13044;49.304;12.840;2023-08-01T00:56:41;4.10;;;2.35;;
25045;SDS011;13044;49.304;12.840;2023-08-01T00:59:09;2.47;;;2.28;;
25045;SDS011;13044;49.304;12.840;2023-08-01T01:01:36;2.45;;;2.25;;
25045;SDS011;13044;49.304;12.840;2023-08-01T01:04:03;3.35;;;2.45;;
25045;SDS011;13044;49.304;12.840;2023-08-01T01:09:01;2.88;;;2.58;;
25045;SDS011;13044;49.304;12.840;2023-08-01T01:11:31;4.32;;;2.50;;
25045;SDS011;13044;49.304;12.840;2023-08-01T01:13:57;2.97;;;2.40;;
25045;SDS011;13044;49.304;12.840;2023-08-01T01:16:24;4.28;;;2.67;;
25045;SDS011;13044;49.304;12.840;2023-08-01T01:18:51;3.28;;;2.35;;
25045;SDS011;13044;49.304;12.840;2023-08-01T01:21:18;2.75;;;2.08;;
25045;SDS011;13044;49.304;12.840;2023-08-01T01:23:45;6.75;;;2.30;;
25045;SDS011;13044;49.304;12.840;2023-08-01T01:26:13;4.55;;;2.40;;
25045;SDS011;13044;49.304;12.840;2023-08-01T01:28:49;3.80;;;2.83;;
25045;SDS011;13044;49.304;12.840;2023-08-01T01:31:17;2.45;;;2.25;;
25045;SDS011;13044;49.304;12.840;2023-08-01T01:33:45;3.28;;;2.33;;
25045;SDS011;13044;49.304;12.840;2023-08-01T01:36:12;4.03;;;2.33;;
25045;SDS011;13044;49.304;12.840;2023-08-01T01:38:39;3.85;;;2.60;;
25045;SDS011;13044;49.304;12.840;2023-08-01T01:41:06;4.10;;;2.67;;
25045;SDS011;13044;49.304;12.840;2023-08-01T01:43:33;3.20;;;2.42;;
25045;SDS011;13044;49.304;12.840;2023-08-01T01:45:59;3.83;;;2.80;;
25045;SDS011;13044;49.304;12.840;2023-08-01T01:48:26;2.88;;;2.17;;
25045;SDS011;13044;49.304;12.840;2023-08-01T01:50:53;9.77;;;2.47;;
25045;SDS011;13044;49.304;12.840;2023-08-01T01:53:20;2.72;;;1.98;;
25045;SDS011;13044;49.304;12.840;2023-08-01T01:55:47;2.40;;;2.20;;
25045;SDS011;13044;49.304;12.840;2023-08-01T01:58:14;6.63;;;2.80;;
25045;SDS011;13044;49.304;12.840;2023-08-01T02:00:40;3.78;;;2.30;;
25045;SDS011;13044;49.304;12.840;2023-08-01T02:03:07;3.13;;;2.10;;
25045;SDS011;13044;49.304;12.840;2023-08-01T02:05:36;3.03;;;2.30;;
25045;SDS011;13044;49.304;12.840;2023-08-01T02:08:03;3.63;;;2.45;;
25045;SDS011;13044;49.304;12.840;2023-08-01T02:10:31;3.55;;;2.50;;
25045;SDS011;13044;49.304;12.840;2023-08-01T02:12:57;2.75;;;2.28;;
25045;SDS011;13044;49.304;12.840;2023-08-01T02:15:24;3.13;;;2.28;;
25045;SDS011;13044;49.304;12.840;2023-08-01T02:17:51;3.70;;;2.30;;
25045;SDS011;13044;49.304;12.840;2023-08-01T02:20:18;3.40;;;2.33;;
25045;SDS011;13044;49.304;12.840;2023-08-01T02:22:45;6.22;;;2.30;;
25045;SDS011;13044;49.304;12.840;2023-08-01T02:25:12;3.45;;;2.55;;
25045;SDS011;13044;49.304;12.840;2023-08-01T02:27:39;3.25;;;2.67;;
25045;SDS011;13044;49.304;12.840;2023-08-01T02:30:06;3.47;;;2.80;;
25045;SDS011;13044;49.304;12.840;2023-08-01T02:32:33;5.85;;;2.25;;
25045;SDS011;13044;49.304;12.840;2023-08-01T02:35:00;5.15;;;2.90;;
25045;SDS011;13044;49.304;12.840;2023-08-01T02:37:27;2.58;;;2.33;;
25045;SDS011;13044;49.304;12.840;2023-08-01T02:39:54;3.08;;;2.35;;
25045;SDS011;13044;49.304;12.840;2023-08-01T02:42:21;2.50;;;2.30;;
25045;SDS011;13044;49.304;12.840;2023-08-01T02:44:48;2.90;;;2.33;;
25045;SDS011;13044;49.304;12.840;2023-08-01T02:47:15;2.78;;;2.40;;
25045;SDS011;13044;49.304;12.840;2023-08-01T02:49:42;2.40;;;2.20;;
25045;SDS011;13044;49.304;12.840;2023-08-01T02:52:09;4.38;;;2.53;;
25045;SDS011;13044;49.304;12.840;2023-08-01T02:54:36;3.35;;;2.42;;
25045;SDS011;13044;49.304;12.840;2023-08-01T02:57:03;6.03;;;2.72;;
25045;SDS011;13044;49.304;12.840;2023-08-01T02:59:30;3.63;;;2.72;;
25045;SDS011;13044;49.304;12.840;2023-08-01T03:01:59;3.25;;;2.65;;
25045;SDS011;13044;49.304;12.840;2023-08-01T03:04:26;2.50;;;2.30;;
25045;SDS011;13044;49.304;12.840;2023-08-01T03:07:10;4.10;;;2.60;;
25045;SDS011;13044;49.304;12.840;2023-08-01T03:09:37;6.47;;;3.58;;
25045;SDS011;13044;49.304;12.840;2023-08-01T03:12:04;5.57;;;3.13;;
25045;SDS011;13044;49.304;12.840;2023-08-01T03:14:31;5.70;;;2.85;;
25045;SDS011;13044;49.304;12.840;2023-08-01T03:16:58;4.85;;;2.70;;
25045;SDS011;13044;49.304;12.840;2023-08-01T03:19:25;4.38;;;3.00;;
25045;SDS011;13044;49.304;12.840;2023-08-01T03:21:52;3.53;;;2.97;;
25045;SDS011;13044;49.304;12.840;2023-08-01T03:24:19;3.38;;;2.72;;
25045;SDS011;13044;49.304;12.840;2023-08-01T03:26:46;3.47;;;2.78;;
25045;SDS011;13044;49.304;12.840;2023-08-01T03:29:12;2.80;;;2.50;;
25045;SDS011;13044;49.304;12.840;2023-08-01T03:31:39;3.38;;;2.30;;
25045;SDS011;13044;49.304;12.840;2023-08-01T03:34:06;3.72;;;2.35;;
25045;SDS011;13044;49.304;12.840;2023-08-01T03:36:35;3.83;;;2.80;;
25045;SDS011;13044;49.304;12.840;2023-08-01T03:39:02;3.72;;;2.92;;
25045;SDS011;13044;49.304;12.840;2023-08-01T03:41:31;5.40;;;3.63;;
25045;SDS011;13044;49.304;12.840;2023-08-01T03:43:59;6.50;;;3.58;;
25045;SDS011;13044;49.304;12.840;2023-08-01T03:46:26;7.30;;;3.42;;
25045;SDS011;13044;49.304;12.840;2023-08-01T03:48:52;5.25;;;3.13;;
25045;SDS011;13044;49.304;12.840;2023-08-01T03:51:19;3.47;;;2.63;;
25045;SDS011;13044;49.304;12.840;2023-08-01T03:53:47;4.25;;;2.45;;
25045;SDS011;13044;49.304;12.840;2023-08-01T03:56:24;3.28;;;2.50;;
25045;SDS011;13044;49.304;12.840;2023-08-01T03:58:53;3.35;;;2.67;;
25045;SDS011;13044;49.304;12.840;2023-08-01T04:01:20;3.65;;;2.55;;
25045;SDS011;13044;49.304;12.840;2023-08-01T04:03:47;3.38;;;2.72;;
25045;SDS011;13044;49.304;12.840;2023-08-01T04:06:14;6.13;;;2.67;;
25045;SDS011;13044;49.304;12.840;2023-08-01T04:08:41;4.43;;;2.78;;
25045;SDS011;13044;49.304;12.840;2023-08-01T04:11:08;5.60;;;2.67;;
25045;SDS011;13044;49.304;12.840;2023-08-01T04:13:37;2.92;;;2.60;;
25045;SDS011;13044;49.304;12.840;2023-08-01T04:16:04;5.82;;;2.58;;
25045;SDS011;13044;49.304;12.840;2023-08-01T04:18:31;3.50;;;2.75;;
25045;SDS011;13044;49.304;12.840;2023-08-01T04:20:58;3.65;;;3.00;;
25045;SDS011;13044;49.304;12.840;2023-08-01T04:23:25;5.57;;;2.95;;
25045;SDS011;13044;49.304;12.840;2023-08-01T04:25:51;3.55;;;2.60;;
25045;SDS011;13044;49.304;12.840;2023-08-01T04:28:19;3.65;;;2.50;;
25045;SDS011;13044;49.304;12.840;2023-08-01T04:30:49;5.93;;;3.10;;
25045;SDS011;13044;49.304;12.840;2023-08-01T04:33:17;6.05;;;3.50;;
25045;SDS011;13044;49.304;12.840;2023-08-01T04:35:44;5.53;;;2.80;;
25045;SDS011;13044;49.304;12.840;2023-08-01T04:38:14;5.25;;;3.33;;
25045;SDS011;13044;49.304;12.840;2023-08-01T04:40:42;7.93;;;3.28;;
25045;SDS011;13044;49.304;12.840;2023-08-01T04:43:10;3.85;;;2.70;;
25045;SDS011;13044;49.304;12.840;2023-08-01T04:45:38;4.95;;;3.28;;
25045;SDS011;13044;49.304;12.840;2023-08-01T04:48:04;4.40;;;2.88;;
25045;SDS011;13044;49.304;12.840;2023-08-01T04:50:31;4.93;;;3.08;;
25045;SDS011;13044;49.304;12.840;2023-08-01T04:52:58;4.28;;;2.70;;
25045;SDS011;13044;49.304;12.840;2023-08-01T04:55:25;4.03;;;3.03;;
25045;SDS011;13044;49.304;12.840;2023-08-01T04:57:52;5.50;;;3.40;;
25045;SDS011;13044;49.304;12.840;2023-08-01T05:00:19;6.20;;;3.25;;
25045;SDS011;13044;49.304;12.840;2023-08-01T05:02:46;3.65;;;3.03;;
25045;SDS011;13044;49.304;12.840;2023-08-01T05:05:13;6.50;;;3.33;;
25045;SDS011;13044;49.304;12.840;2023-08-01T05:07:42;3.80;;;3.08;;
25045;SDS011;13044;49.304;12.840;2023-08-01T05:10:09;3.63;;;2.83;;
25045;SDS011;13044;49.304;12.840;2023-08-01T05:12:36;5.53;;;3.00;;
25045;SDS011;13044;49.304;12.840;2023-08-01T05:15:03;4.75;;;2.97;;
25045;SDS011;13044;49.304;12.840;2023-08-01T05:17:30;3.45;;;2.50;;
25045;SDS011;13044;49.304;12.840;2023-08-01T05:19:57;2.78;;;2.42;;
25045;SDS011;13044;49.304;12.840;2023-08-01T05:22:24;6.50;;;2.85;;
25045;SDS011;13044;49.304;12.840;2023-08-01T05:24:51;3.95;;;3.33;;
25045;SDS011;13044;49.304;12.840;2023-08-01T05:27:18;4.22;;;3.10;;
25045;SDS011;13044;49.304;12.840;2023-08-01T05:29:44;5.28;;;3.13;;
25045;SDS011;13044;49.304;12.840;2023-08-01T05:32:11;5.53;;;2.65;;
25045;SDS011;13044;49.304;12.840;2023-08-01T05:34:38;3.42;;;2.42;;
25045;SDS011;13044;49.304;12.840;2023-08-01T05:37:05;4.55;;;3.03;;
25045;SDS011;13044;49.304;12.840;2023-08-01T05:39:32;5.43;;;2.90;;
25045;SDS011;13044;49.304;12.840;2023-08-01T05:41:59;4.70;;;3.28;;
25045;SDS011;13044;49.304;12.840;2023-08-01T05:44:26;3.92;;;3.00;;
25045;SDS011;13044;49.304;12.840;2023-08-01T05:46:52;2.75;;;2.53;;
25045;SDS011;13044;49.304;12.840;2023-08-01T05:49:19;5.43;;;3.75;;
25045;SDS011;13044;49.304;12.840;2023-08-01T05:51:46;3.55;;;2.70;;
25045;SDS011;13044;49.304;12.840;2023-08-01T05:54:13;4.07;;;3.10;;
25045;SDS011;13044;49.304;12.840;2023-08-01T05:56:40;5.22;;;3.58;;
25045;SDS011;13044;49.304;12.840;2023-08-01T05:59:08;3.83;;;3.03;;
25045;SDS011;13044;49.304;12.840;2023-08-01T06:01:34;3.45;;;2.80;;
25045;SDS011;13044;49.304;12.840;2023-08-01T06:04:01;4.47;;;3.25;;
25045;SDS011;13044;49.304;12.840;2023-08-01T06:06:29;5.15;;;3.70;;
25045;SDS011;13044;49.304;12.840;2023-08-01T06:08:55;4.00;;;3.35;;
25045;SDS011;13044;49.304;12.840;2023-08-01T06:11:22;4.13;;;3.28;;
25045;SDS011;13044;49.304;12.840;2023-08-01T06:13:49;3.97;;;3.08;;
25045;SDS011;13044;49.304;12.840;2023-08-01T06:16:17;5.35;;;3.50;;
25045;SDS011;13044;49.304;12.840;2023-08-01T06:18:44;4.18;;;2.95;;
25045;SDS011;13044;49.304;12.840;2023-08-01T06:21:11;4.38;;;3.28;;
25045;SDS011;13044;49.304;12.840;2023-08-01T06:23:37;3.95;;;3.20;;
25045;SDS011;13044;49.304;12.840;2023-08-01T06:26:04;5.18;;;3.83;;
25045;SDS011;13044;49.304;12.840;2023-08-01T06:28:31;4.32;;;3.17;;
25045;SDS011;13044;49.304;12.840;2023-08-01T06:30:58;3.95;;;3.22;;
25045;SDS011;13044;49.304;12.840;2023-08-01T06:33:25;4.25;;;3.42;;
25045;SDS011;13044;49.304;12.840;2023-08-01T06:35:52;4.45;;;3.38;;
25045;SDS011;13044;49.304;12.840;2023-08-01T06:38:19;4.13;;;3.45;;
25045;SDS011;13044;49.304;12.840;2023-08-01T06:40:46;4.30;;;3.30;;
25045;SDS011;13044;49.304;12.840;2023-08-01T06:43:12;6.38;;;3.55;;
25045;SDS011;13044;49.304;12.840;2023-08-01T06:45:39;5.00;;;3.72;;
25045;SDS011;13044;49.304;12.840;2023-08-01T06:48:06;4.78;;;3.83;;
25045;SDS011;13044;49.304;12.840;2023-08-01T06:50:34;3.95;;;3.05;;
25045;SDS011;13044;49.304;12.840;2023-08-01T06:53:01;4.85;;;3.35;;
25045;SDS011;13044;49.304;12.840;2023-08-01T06:55:28;5.53;;;4.05;;
25045;SDS011;13044;49.304;12.840;2023-08-01T06:57:55;4.03;;;3.50;;
25045;SDS011;13044;49.304;12.840;2023-08-01T07:00:22;3.47;;;3.17;;
25045;SDS011;13044;49.304;12.840;2023-08-01T07:02:49;4.13;;;3.40;;
25045;SDS011;13044;49.304;12.840;2023-08-01T07:05:16;4.75;;;3.60;;
25045;SDS011;13044;49.304;12.840;2023-08-01T07:07:44;3.92;;;3.28;;
25045;SDS011;13044;49.304;12.840;2023-08-01T07:10:11;3.97;;;3.42;;
25045;SDS011;13044;49.304;12.840;2023-08-01T07:12:38;4.57;;;3.45;;
25045;SDS011;13044;49.304;12.840;2023-08-01T07:15:05;4.28;;;3.40;;
25045;SDS011;13044;49.304;12.840;2023-08-01T07:17:33;4.22;;;3.30;;
25045;SDS011;13044;49.304;12.840;2023-08-01T07:20:00;4.00;;;2.90;;
25045;SDS011;13044;49.304;12.840;2023-08-01T07:22:27;4.75;;;3.17;;
25045;SDS011;13044;49.304;12.840;2023-08-01T07:24:54;3.67;;;3.13;;
25045;SDS011;13044;49.304;12.840;2023-08-01T07:27:21;4.07;;;3.08;;
25045;SDS011;13044;49.304;12.840;2023-08-01T07:29:48;4.10;;;3.25;;
25045;SDS011;13044;49.304;12.840;2023-08-01T07:32:15;4.53;;;3.63;;
25045;SDS011;13044;49.304;12.840;2023-08-01T07:34:42;6.05;;;3.42;;
25045;SDS011;13044;49.304;12.840;2023-08-01T07:37:09;4.53;;;3.50;;
25045;SDS011;13044;49.304;12.840;2023-08-01T07:39:35;4.32;;;2.97;;
25045;SDS011;13044;49.304;12.840;2023-08-01T07:42:02;3.80;;;3.25;;
25045;SDS011;13044;49.304;12.840;2023-08-01T07:44:30;4.90;;;3.65;;
25045;SDS011;13044;49.304;12.840;2023-08-01T07:46:57;4.15;;;3.40;;
25045;SDS011;13044;49.304;12.840;2023-08-01T07:49:24;3.67;;;3.25;;
25045;SDS011;13044;49.304;12.840;2023-08-01T07:51:51;5.72;;;4.05;;
25045;SDS011;13044;49.304;12.840;2023-08-01T07:54:18;5.95;;;4.00;;
25045;SDS011;13044;49.304;12.840;2023-08-01T07:56:45;4.50;;;3.78;;
25045;SDS011;13044;49.304;12.840;2023-08-01T07:59:14;5.38;;;3.60;;
25045;SDS011;13044;49.304;12.840;2023-08-01T08:01:42;3.90;;;3.38;;
25045;SDS011;13044;49.304;12.840;2023-08-01T08:04:09;6.25;;;4.00;;
25045;SDS011;13044;49.304;12.840;2023-08-01T08:06:36;4.10;;;3.28;;
25045;SDS011;13044;49.304;12.840;2023-08-01T08:09:04;4.10;;;3.35;;
25045;SDS011;13044;49.304;12.840;2023-08-01T08:11:31;4.80;;;3.63;;
25045;SDS011;13044;49.304;12.840;2023-08-01T08:13:59;5.63;;;4.03;;
25045;SDS011;13044;49.304;12.840;2023-08-01T08:16:26;5.10;;;3.78;;
25045;SDS011;13044;49.304;12.840;2023-08-01T08:18:53;4.47;;;3.60;;
25045;SDS011;13044;49.304;12.840;2023-08-01T08:21:20;4.70;;;3.80;;
25045;SDS011;13044;49.304;12.840;2023-08-01T08:23:47;5.55;;;3.88;;
25045;SDS011;13044;49.304;12.840;2023-08-01T08:26:14;3.88;;;3.45;;
25045;SDS011;13044;49.304;12.840;2023-08-01T08:28:40;4.80;;;3.95;;
25045;SDS011;13044;49.304;12.840;2023-08-01T08:31:08;4.88;;;3.95;;
25045;SDS011;13044;49.304;12.840;2023-08-01T08:33:36;4.45;;;3.88;;
25045;SDS011;13044;49.304;12.840;2023-08-01T08:36:02;3.70;;;3.20;;
25045;SDS011;13044;49.304;12.840;2023-08-01T08:38:29;5.65;;;3.90;;
25045;SDS011;13044;49.304;12.840;2023-08-01T08:41:02;4.35;;;3.95;;
25045;SDS011;13044;49.304;12.840;2023-08-01T08:43:37;5.57;;;3.90;;
25045;SDS011;13044;49.304;12.840;2023-08-01T08:46:04;6.60;;;3.78;;
25045;SDS011;13044;49.304;12.840;2023-08-01T08:48:32;5.93;;;3.97;;
25045;SDS011;13044;49.304;12.840;2023-08-01T08:51:00;6.38;;;4.10;;
25045;SDS011;13044;49.304;12.840;2023-08-01T08:53:30;4.45;;;3.55;;
25045;SDS011;13044;49.304;12.840;2023-08-01T08:55:59;5.65;;;4.13;;
25045;SDS011;13044;49.304;12.840;2023-08-01T08:58:31;5.28;;;4.00;;
25045;SDS011;13044;49.304;12.840;2023-08-01T09:01:01;3.47;;;3.17;;
25045;SDS011;13044;49.304;12.840;2023-08-01T09:03:29;5.68;;;3.60;;
25045;SDS011;13044;49.304;12.840;2023-08-01T09:06:02;5.20;;;3.70;;
25045;SDS011;13044;49.304;12.840;2023-08-01T09:08:36;5.72;;;3.80;;
25045;SDS011;13044;49.304;12.840;2023-08-01T09:11:05;5.22;;;3.85;;
25045;SDS011;13044;49.304;12.840;2023-08-01T09:13:32;4.80;;;3.60;;
25045;SDS011;13044;49.304;12.840;2023-08-01T09:16:01;5.13;;;3.38;;
25045;SDS011;13044;49.304;12.840;2023-08-01T09:18:29;4.43;;;3.80;;
25045;SDS011;13044;49.304;12.840;2023-08-01T09:20:56;5.00;;;4.40;;
25045;SDS011;13044;49.304;12.840;2023-08-01T09:23:29;5.18;;;3.55;;
25045;SDS011;13044;49.304;12.840;2023-08-01T09:25:57;5.25;;;4.07;;
25045;SDS011;13044;49.304;12.840;2023-08-01T09:28:25;5.95;;;3.92;;
25045;SDS011;13044;49.304;12.840;2023-08-01T09:30:54;5.35;;;4.07;;
25045;SDS011;13044;49.304;12.840;2023-08-01T09:33:22;4.65;;;3.88;;
25045;SDS011;13044;49.304;12.840;2023-08-01T09:35:49;7.32;;;4.53;;
25045;SDS011;13044;49.304;12.840;2023-08-01T09:38:17;5.05;;;4.18;;
25045;SDS011;13044;49.304;12.840;2023-08-01T09:40:45;4.65;;;3.35;;
25045;SDS011;13044;49.304;12.840;2023-08-01T09:43:14;5.03;;;3.67;;
25045;SDS011;13044;49.304;12.840;2023-08-01T09:45:53;5.55;;;4.00;;
25045;SDS011;13044;49.304;12.840;2023-08-01T09:48:24;5.20;;;4.13;;
25045;SDS011;13044;49.304;12.840;2023-08-01T09:51:12;6.70;;;4.65;;
25045;SDS011;13044;49.304;12.840;2023-08-01T09:53:52;4.82;;;3.95;;
25045;SDS011;13044;49.304;12.840;2023-08-01T09:56:25;5.03;;;3.95;;
25045;SDS011;13044;49.304;12.840;2023-08-01T09:58:54;4.97;;;3.85;;
25045;SDS011;13044;49.304;12.840;2023-08-01T10:01:23;5.53;;;3.97;;
25045;SDS011;13044;49.304;12.840;2023-08-01T10:03:51;5.25;;;3.83;;
25045;SDS011;13044;49.304;12.840;2023-08-01T10:06:20;5.13;;;4.10;;
25045;SDS011;13044;49.304;12.840;2023-08-01T10:08:55;4.60;;;3.67;;
25045;SDS011;13044;49.304;12.840;2023-08-01T10:11:22;5.25;;;3.95;;
25045;SDS011;13044;49.304;12.840;2023-08-01T10:13:49;6.22;;;4.05;;
25045;SDS011;13044;49.304;12.840;2023-08-01T10:16:16;7.00;;;4.70;;
25045;SDS011;13044;49.304;12.840;2023-08-01T10:18:44;4.57;;;4.13;;
25045;SDS011;13044;49.304;12.840;2023-08-01T10:21:15;6.22;;;4.13;;
25045;SDS011;13044;49.304;12.840;2023-08-01T10:23:43;5.05;;;3.55;;
25045;SDS011;13044;49.304;12.840;2023-08-01T10:26:12;5.93;;;4.05;;
25045;SDS011;13044;49.304;12.840;2023-08-01T10:28:40;6.47;;;3.92;;
25045;SDS011;13044;49.304;12.840;2023-08-01T10:31:16;4.88;;;3.42;;
25045;SDS011;13044;49.304;12.840;2023-08-01T10:33:45;6.30;;;3.95;;
25045;SDS011;13044;49.304;12.840;2023-08-01T10:36:14;5.00;;;3.95;;
25045;SDS011;13044;49.304;12.840;2023-08-01T10:38:47;4.57;;;3.67;;
25045;SDS011;13044;49.304;12.840;2023-08-01T10:41:21;3.78;;;3.30;;
25045;SDS011;13044;49.304;12.840;2023-08-01T10:44:09;6.22;;;3.80;;
25045;SDS011;13044;49.304;12.840;2023-08-01T10:47:15;5.13;;;3.30;;
25045;SDS011;13044;49.304;12.840;2023-08-01T10:49:42;5.68;;;3.45;;
25045;SDS011;13044;49.304;12.840;2023-08-01T10:52:20;6.45;;;4.00;;
25045;SDS011;13044;49.304;12.840;2023-08-01T10:54:57;5.20;;;3.97;;
25045;SDS011;13044;49.304;12.840;2023-08-01T10:57:38;6.28;;;4.13;;
25045;SDS011;13044;49.304;12.840;2023-08-01T11:00:15;5.15;;;3.97;;
25045;SDS011;13044;49.304;12.840;2023-08-01T11:02:48;4.85;;;3.88;;
25045;SDS011;13044;49.304;12.840;2023-08-01T11:05:18;5.38;;;4.40;;
25045;SDS011;13044;49.304;12.840;2023-08-01T11:10:27;5.05;;;4.03;;
25045;SDS011;13044;49.304;12.840;2023-08-01T11:12:57;4.93;;;3.95;;
25045;SDS011;13044;49.304;12.840;2023-08-01T11:15:25;5.90;;;4.25;;
25045;SDS011;13044;49.304;12.840;2023-08-01T11:17:53;6.57;;;3.97;;
25045;SDS011;13044;49.304;12.840;2023-08-01T11:20:22;5.70;;;4.20;;
25045;SDS011;13044;49.304;12.840;2023-08-01T11:22:54;4.68;;;3.72;;
25045;SDS011;13044;49.304;12.840;2023-08-01T11:25:39;5.78;;;4.32;;
25045;SDS011;13044;49.304;12.840;2023-08-01T11:28:10;6.78;;;4.20;;
25045;SDS011;13044;49.304;12.840;2023-08-01T11:30:40;4.72;;;3.42;;
25045;SDS011;13044;49.304;12.840;2023-08-01T11:33:17;6.05;;;4.13;;
25045;SDS011;13044;49.304;12.840;2023-08-01T11:35:53;6.55;;;4.18;;
25045;SDS011;13044;49.304;12.840;2023-08-01T11:38:26;5.85;;;3.92;;
25045;SDS011;13044;49.304;12.840;2023-08-01T11:41:00;5.03;;;3.80;;
25045;SDS011;13044;49.304;12.840;2023-08-01T11:43:40;5.65;;;4.20;;
25045;SDS011;13044;49.304;12.840;2023-08-01T11:46:08;4.30;;;3.60;;
25045;SDS011;13044;49.304;12.840;2023-08-01T11:48:36;4.30;;;3.35;;
25045;SDS011;13044;49.304;12.840;2023-08-01T11:51:03;5.40;;;4.07;;
25045;SDS011;13044;49.304;12.840;2023-08-01T11:53:30;15.38;;;4.20;;
25045;SDS011;13044;49.304;12.840;2023-08-01T11:56:05;5.10;;;3.80;;
25045;SDS011;13044;49.304;12.840;2023-08-01T11:58:36;4.47;;;3.90;;
25045;SDS011;13044;49.304;12.840;2023-08-01T12:01:08;6.72;;;3.78;;
25045;SDS011;13044;49.304;12.840;2023-08-01T12:03:46;8.65;;;4.07;;
25045;SDS011;13044;49.304;12.840;2023-08-01T12:06:17;4.47;;;3.78;;
25045;SDS011;13044;49.304;12.840;2023-08-01T12:08:50;4.43;;;3.83;;
25045;SDS011;13044;49.304;12.840;2023-08-01T12:11:22;4.97;;;3.80;;
25045;SDS011;13044;49.304;12.840;2023-08-01T12:14:02;6.55;;;4.22;;
25045;SDS011;13044;49.304;12.840;2023-08-01T12:16:30;4.05;;;3.50;;
25045;SDS011;13044;49.304;12.840;2023-08-01T12:18:57;5.88;;;3.67;;
25045;SDS011;13044;49.304;12.840;2023-08-01T12:21:27;4.93;;;3.65;;
25045;SDS011;13044;49.304;12.840;2023-08-01T12:23:55;4.68;;;3.42;;
25045;SDS011;13044;49.304;12.840;2023-08-01T12:26:23;5.28;;;3.70;;
25045;SDS011;13044;49.304;12.840;2023-08-01T12:28:50;4.65;;;3.35;;
25045;SDS011;13044;49.304;12.840;2023-08-01T12:31:18;4.15;;;3.47;;
25045;SDS011;13044;49.304;12.840;2023-08-01T12:33:46;5.40;;;3.90;;
25045;SDS011;13044;49.304;12.840;2023-08-01T12:36:14;4.30;;;3.58;;
25045;SDS011;13044;49.304;12.840;2023-08-01T12:38:41;5.40;;;3.92;;
25045;SDS011;13044;49.304;12.840;2023-08-01T12:41:08;5.32;;;3.38;;
25045;SDS011;13044;49.304;12.840;2023-08-01T12:43:35;4.40;;;3.60;;
25045;SDS011;13044;49.304;12.840;2023-08-01T12:46:03;4.00;;;3.60;;
25045;SDS011;13044;49.304;12.840;2023-08-01T12:48:30;5.10;;;3.70;;
25045;SDS011;13044;49.304;12.840;2023-08-01T12:50:57;4.22;;;3.42;;
25045;SDS011;13044;49.304;12.840;2023-08-01T12:53:24;4.38;;;3.30;;
25045;SDS011;13044;49.304;12.840;2023-08-01T12:55:51;4.45;;;3.40;;
25045;SDS011;13044;49.304;12.840;2023-08-01T12:58:18;5.50;;;3.53;;
25045;SDS011;13044;49.304;12.840;2023-08-01T13:00:45;3.35;;;3.05;;
25045;SDS011;13044;49.304;12.840;2023-08-01T13:03:13;4.03;;;3.60;;
25045;SDS011;13044;49.304;12.840;2023-08-01T13:05:40;4.47;;;3.38;;
25045;SDS011;13044;49.304;12.840;2023-08-01T13:08:08;5.22;;;3.40;;
25045;SDS011;13044;49.304;12.840;2023-08-01T13:10:36;3.28;;;2.97;;
25045;SDS011;13044;49.304;12.840;2023-08-01T13:13:05;3.92;;;3.22;;
25045;SDS011;13044;49.304;12.840;2023-08-01T13:15:32;3.47;;;2.90;;
25045;SDS011;13044;49.304;12.840;2023-08-01T13:17:59;3.83;;;3.10;;
25045;SDS011;13044;49.304;12.840;2023-08-01T13:20:27;4.72;;;2.78;;
25045;SDS011;13044;49.304;12.840;2023-08-01T13:22:56;3.95;;;3.00;;
25045;SDS011;13044;49.304;12.840;2023-08-01T13:25:23;3.38;;;2.90;;
25045;SDS011;13044;49.304;12.840;2023-08-01T13:27:50;3.45;;;3.10;;
25045;SDS011;13044;49.304;12.840;2023-08-01T13:30:17;4.72;;;3.03;;
25045;SDS011;13044;49.304;12.840;2023-08-01T13:32:44;6.20;;;3.42;;
25045;SDS011;13044;49.304;12.840;2023-08-01T13:35:12;5.20;;;3.05;;
25045;SDS011;13044;49.304;12.840;2023-08-01T13:37:40;5.20;;;3.08;;
25045;SDS011;13044;49.304;12.840;2023-08-01T13:40:07;3.88;;;2.95;;
25045;SDS011;13044;49.304;12.840;2023-08-01T13:42:37;3.78;;;3.20;;
25045;SDS011;13044;49.304;12.840;2023-08-01T13:45:05;3.80;;;2.70;;
25045;SDS011;13044;49.304;12.840;2023-08-01T13:47:33;4.45;;;2.90;;
25045;SDS011;13044;49.304;12.840;2023-08-01T13:50:00;3.97;;;2.65;;
25045;SDS011;13044;49.304;12.840;2023-08-01T13:52:27;3.15;;;2.53;;
25045;SDS011;13044;49.304;12.840;2023-08-01T13:54:54;4.05;;;2.63;;
25045;SDS011;13044;49.304;12.840;2023-08-01T13:57:21;2.55;;;2.22;;
25045;SDS011;13044;49.304;12.840;2023-08-01T13:59:50;5.13;;;2.42;;
25045;SDS011;13044;49.304;12.840;2023-08-01T14:02:35;2.47;;;2.28;;
25045;SDS011;13044;49.304;12.840;2023-08-01T14:05:02;2.10;;;1.90;;
25045;SDS011;13044;49.304;12.840;2023-08-01T14:07:30;2.60;;;2.40;;
25045;SDS011;13044;49.304;12.840;2023-08-01T14:09:57;3.38;;;2.30;;
25045;SDS011;13044;49.304;12.840;2023-08-01T14:12:24;3.15;;;2.20;;
25045;SDS011;13044;49.304;12.840;2023-08-01T14:14:52;2.13;;;1.92;;
25045;SDS011;13044;49.304;12.840;2023-08-01T14:17:19;2.55;;;2.33;;
25045;SDS011;13044;49.304;12.840;2023-08-01T14:19:46;3.58;;;2.08;;
25045;SDS011;13044;49.304;12.840;2023-08-01T14:22:13;3.95;;;2.10;;
25045;SDS011;13044;49.304;12.840;2023-08-01T14:24:40;2.83;;;1.88;;
25045;SDS011;13044;49.304;12.840;2023-08-01T14:27:08;2.97;;;1.98;;
25045;SDS011;13044;49.304;12.840;2023-08-01T14:29:35;2.10;;;1.70;;
25045;SDS011;13044;49.304;12.840;2023-08-01T14:32:02;2.80;;;2.22;;
25045;SDS011;13044;49.304;12.840;2023-08-01T14:34:30;2.50;;;1.90;;
25045;SDS011;13044;49.304;12.840;2023-08-01T14:36:57;4.43;;;2.00;;
25045;SDS011;13044;49.304;12.840;2023-08-01T14:39:24;2.83;;;2.25;;
25045;SDS011;13044;49.304;12.840;2023-08-01T14:41:51;2.75;;;1.60;;
25045;SDS011;13044;49.304;12.840;2023-08-01T14:44:30;2.75;;;2.10;;